createdAt,value
2023-01-27T00:00:21.446Z,4.30
2023-01-27T00:02:47.657Z,4.31
2023-01-27T00:05:14.453Z,4.29
2023-01-27T00:07:40.662Z,4.25
2023-01-27T00:10:07.185Z,4.24
2023-01-27T00:12:33.385Z,4.26
2023-01-27T00:14:59.589Z,4.20
2023-01-27T00:17:25.806Z,4.17
2023-01-27T00:19:52.009Z,4.23
2023-01-27T00:22:18.209Z,4.18
2023-01-27T00:24:44.419Z,4.14
2023-01-27T00:27:10.639Z,4.15
2023-01-27T00:29:36.866Z,4.07
2023-01-27T00:32:03.095Z,4.14
2023-01-27T00:34:29.307Z,4.05
2023-01-27T00:36:55.513Z,4.08
2023-01-27T00:39:21.800Z,4.06
2023-01-27T00:41:48.024Z,4.02
2023-01-27T00:44:14.223Z,4.05
2023-01-27T00:46:40.856Z,4.01
2023-01-27T00:49:07.220Z,4.03
2023-01-27T00:51:33.452Z,4.04
2023-01-27T00:53:59.672Z,4.02
2023-01-27T00:56:25.887Z,3.98
2023-01-27T00:58:52.091Z,4.02
2023-01-27T01:01:18.353Z,3.98
2023-01-27T01:03:44.636Z,4.02
2023-01-27T01:06:11.793Z,3.87
2023-01-27T01:08:38.063Z,3.87
2023-01-27T01:11:04.817Z,3.89
2023-01-27T01:13:31.113Z,3.85
2023-01-27T01:15:57.423Z,3.85
2023-01-27T01:18:23.722Z,3.83
2023-01-27T01:20:49.941Z,3.79
2023-01-27T01:23:16.150Z,3.77
2023-01-27T01:25:42.382Z,3.78
2023-01-27T01:28:08.928Z,3.81
2023-01-27T01:30:35.490Z,3.79
2023-01-27T01:33:01.696Z,3.79
2023-01-27T01:35:27.919Z,3.75
2023-01-27T01:37:54.136Z,3.73
2023-01-27T01:40:20.887Z,3.75
2023-01-27T01:42:50.137Z,3.67
2023-01-27T01:45:31.501Z,3.69
2023-01-27T01:48:01.245Z,3.67
2023-01-27T01:50:27.436Z,3.63
2023-01-27T01:52:53.645Z,3.66
2023-01-27T01:55:20.053Z,3.62
2023-01-27T01:57:46.278Z,3.60
2023-01-27T02:00:13.070Z,3.55
2023-01-27T02:02:39.435Z,3.56
2023-01-27T02:05:10.612Z,3.57
2023-01-27T02:07:40.036Z,3.53
2023-01-27T02:10:06.332Z,3.54
2023-01-27T02:12:32.555Z,3.53
2023-01-27T02:14:58.767Z,3.50
2023-01-27T02:17:24.997Z,3.52
2023-01-27T02:19:57.896Z,3.51
2023-01-27T02:22:24.795Z,3.48
2023-01-27T02:24:51.787Z,3.48
2023-01-27T02:27:18.106Z,3.42
2023-01-27T02:29:44.314Z,3.50
2023-01-27T02:32:21.723Z,3.55
2023-01-27T02:34:47.931Z,3.52
2023-01-27T02:37:14.151Z,3.50
2023-01-27T02:39:41.053Z,3.51
2023-01-27T02:42:07.525Z,3.56
2023-01-27T02:44:33.969Z,3.55
2023-01-27T02:47:00.181Z,3.55
2023-01-27T02:49:26.395Z,3.44
2023-01-27T02:51:52.628Z,3.50
2023-01-27T02:54:18.837Z,3.56
2023-01-27T02:56:45.054Z,3.56
2023-01-27T02:59:11.258Z,3.59
2023-01-27T03:01:37.486Z,3.54
2023-01-27T03:04:03.768Z,3.55
2023-01-27T03:06:30.017Z,3.50
2023-01-27T03:08:56.370Z,3.58
2023-01-27T03:11:22.640Z,3.58
2023-01-27T03:13:48.876Z,3.55
2023-01-27T03:16:15.098Z,3.52
2023-01-27T03:18:41.305Z,3.52
2023-01-27T03:21:07.545Z,3.54
2023-01-27T03:23:33.758Z,3.53
2023-01-27T03:26:00.221Z,3.54
2023-01-27T03:28:26.450Z,3.54
2023-01-27T03:30:58.513Z,3.54
2023-01-27T03:33:24.772Z,3.54
2023-01-27T03:35:50.969Z,3.53
2023-01-27T03:38:17.169Z,3.48
2023-01-27T03:40:43.366Z,3.44
2023-01-27T03:43:09.592Z,3.45
2023-01-27T03:45:36.205Z,3.49
2023-01-27T03:48:02.418Z,3.44
2023-01-27T03:50:28.673Z,3.42
2023-01-27T03:52:54.878Z,3.40
2023-01-27T03:55:21.072Z,3.45
2023-01-27T03:57:47.276Z,3.49
2023-01-27T04:00:13.698Z,3.46
2023-01-27T04:02:40.069Z,3.49
2023-01-27T04:05:06.565Z,3.49
2023-01-27T04:07:36.072Z,3.50
2023-01-27T04:10:03.013Z,3.48
2023-01-27T04:12:29.208Z,3.41
2023-01-27T04:14:55.413Z,3.44
2023-01-27T04:17:21.668Z,3.45
2023-01-27T04:19:47.998Z,3.45
2023-01-27T04:22:14.555Z,3.42
2023-01-27T04:24:40.771Z,3.42
2023-01-27T04:27:13.750Z,3.34
2023-01-27T04:29:40.279Z,3.35
2023-01-27T04:32:06.893Z,3.42
2023-01-27T04:34:33.102Z,3.32
2023-01-27T04:36:59.435Z,3.34
2023-01-27T04:39:25.652Z,3.31
2023-01-27T04:41:51.871Z,3.28
2023-01-27T04:44:18.147Z,3.40
2023-01-27T04:46:44.353Z,3.33
2023-01-27T04:49:10.574Z,3.24
2023-01-27T04:51:36.776Z,3.25
2023-01-27T04:54:03.042Z,3.15
2023-01-27T04:56:32.187Z,3.18
2023-01-27T04:58:59.029Z,3.13
2023-01-27T05:01:25.266Z,3.23
2023-01-27T05:03:51.490Z,3.16
2023-01-27T05:06:17.712Z,3.13
2023-01-27T05:08:43.934Z,3.11
2023-01-27T05:11:10.184Z,3.17
2023-01-27T05:13:36.400Z,3.12
2023-01-27T05:16:06.695Z,3.09
2023-01-27T05:18:32.949Z,3.12
2023-01-27T05:20:59.586Z,3.01
2023-01-27T05:23:25.784Z,3.05
2023-01-27T05:25:52.004Z,3.05
2023-01-27T05:28:18.216Z,3.01
2023-01-27T05:30:44.823Z,2.97
2023-01-27T05:33:11.063Z,2.96
2023-01-27T05:35:37.277Z,2.98
2023-01-27T05:38:03.484Z,2.97
2023-01-27T05:40:29.772Z,2.95
2023-01-27T05:42:55.972Z,3.01
2023-01-27T05:45:22.196Z,2.96
2023-01-27T05:47:49.191Z,2.96
2023-01-27T05:50:15.541Z,3.00
2023-01-27T05:52:41.735Z,2.98
2023-01-27T05:55:07.970Z,2.95
2023-01-27T05:57:34.176Z,2.98
2023-01-27T06:00:00.382Z,2.92
2023-01-27T06:02:26.578Z,2.94
2023-01-27T06:04:52.790Z,2.91
2023-01-27T06:07:18.990Z,2.96
2023-01-27T06:09:45.210Z,2.89
2023-01-27T06:12:11.419Z,2.86
2023-01-27T06:14:37.630Z,2.91
2023-01-27T06:17:03.824Z,2.88
2023-01-27T06:19:30.041Z,2.86
2023-01-27T06:21:56.375Z,2.77
2023-01-27T06:24:22.613Z,2.74
2023-01-27T06:26:48.843Z,2.67
2023-01-27T06:29:15.059Z,2.66
2023-01-27T06:31:41.301Z,2.69
2023-01-27T06:34:07.541Z,2.61
2023-01-27T06:36:33.753Z,2.61
2023-01-27T06:39:00.034Z,2.69
2023-01-27T06:41:26.250Z,2.69
2023-01-27T06:43:52.447Z,2.71
2023-01-27T06:46:18.746Z,2.72
2023-01-27T06:48:44.999Z,2.66
2023-01-27T06:51:11.789Z,2.66
2023-01-27T06:53:37.999Z,2.66
2023-01-27T06:56:04.280Z,2.71
2023-01-27T06:58:30.511Z,2.74
2023-01-27T07:00:56.737Z,2.70
2023-01-27T07:03:22.952Z,2.68
2023-01-27T07:05:49.184Z,2.71
2023-01-27T07:08:15.393Z,2.74
2023-01-27T07:10:41.612Z,2.73
2023-01-27T07:13:08.439Z,2.74
2023-01-27T07:15:34.678Z,2.75
2023-01-27T07:18:01.006Z,2.73
2023-01-27T07:20:27.492Z,2.68
2023-01-27T07:22:53.698Z,2.72
2023-01-27T07:25:19.919Z,2.75
2023-01-27T07:27:46.157Z,2.73
2023-01-27T07:30:12.835Z,2.76
2023-01-27T07:32:39.165Z,2.79
2023-01-27T07:35:05.604Z,2.78
2023-01-27T07:37:32.101Z,2.77
2023-01-27T07:39:58.777Z,2.78
2023-01-27T07:42:25.008Z,2.79
2023-01-27T07:44:51.201Z,2.79
2023-01-27T07:47:17.435Z,2.80
2023-01-27T07:49:43.650Z,2.77
2023-01-27T07:52:10.084Z,2.75
2023-01-27T07:54:36.282Z,2.65
2023-01-27T07:57:02.500Z,2.69
2023-01-27T07:59:28.702Z,2.63
2023-01-27T08:01:54.909Z,2.62
2023-01-27T08:04:21.123Z,2.61
2023-01-27T08:06:47.355Z,2.62
2023-01-27T08:09:13.553Z,2.50
2023-01-27T08:11:39.769Z,2.54
2023-01-27T08:14:05.988Z,2.46
2023-01-27T08:16:32.282Z,2.51
2023-01-27T08:18:58.527Z,2.41
2023-01-27T08:21:24.755Z,2.47
2023-01-27T08:23:52.709Z,2.48
2023-01-27T08:26:19.023Z,2.48
2023-01-27T08:28:45.227Z,2.50
2023-01-27T08:31:12.414Z,2.61
2023-01-27T08:33:38.851Z,2.55
2023-01-27T08:36:06.372Z,2.53
2023-01-27T08:38:32.663Z,2.58
2023-01-27T08:40:58.889Z,2.62
2023-01-27T08:43:25.090Z,2.65
2023-01-27T08:45:51.997Z,2.57
2023-01-27T08:48:18.240Z,2.53
2023-01-27T08:50:44.441Z,2.53
2023-01-27T08:53:10.662Z,2.52
2023-01-27T08:55:36.864Z,2.58
2023-01-27T08:58:03.081Z,2.59
2023-01-27T09:00:29.292Z,2.62
2023-01-27T09:02:55.496Z,2.53
2023-01-27T09:05:21.716Z,2.55
2023-01-27T09:07:47.938Z,2.53
2023-01-27T09:10:19.861Z,2.52
2023-01-27T09:12:46.305Z,2.57
2023-01-27T09:15:12.900Z,2.61
2023-01-27T09:17:39.183Z,2.61
2023-01-27T09:20:05.646Z,2.62
2023-01-27T09:22:31.859Z,2.58
2023-01-27T09:24:58.081Z,2.56
2023-01-27T09:27:37.243Z,2.60
2023-01-27T09:30:05.042Z,2.62
2023-01-27T09:32:31.252Z,2.56
2023-01-27T09:34:57.445Z,2.58
2023-01-27T09:37:23.683Z,2.68
2023-01-27T09:39:50.688Z,2.71
2023-01-27T09:42:28.962Z,2.72
2023-01-27T09:45:04.020Z,2.74
2023-01-27T09:47:46.071Z,2.73
2023-01-27T09:50:22.139Z,2.75
2023-01-27T09:52:59.434Z,2.76
2023-01-27T09:55:38.240Z,2.78
2023-01-27T09:58:06.723Z,2.76
2023-01-27T10:00:37.340Z,2.81
2023-01-27T10:03:15.969Z,2.88
2023-01-27T10:06:00.865Z,2.82
2023-01-27T10:08:45.795Z,2.87
2023-01-27T10:11:19.339Z,2.90
2023-01-27T10:13:56.207Z,2.97
2023-01-27T10:16:29.844Z,2.99
2023-01-27T10:19:01.621Z,2.98
2023-01-27T10:21:48.064Z,3.00
2023-01-27T10:24:27.701Z,3.06
2023-01-27T10:27:00.353Z,3.02
2023-01-27T10:29:26.520Z,3.06
2023-01-27T10:32:11.475Z,3.07
2023-01-27T10:34:39.690Z,3.17
2023-01-27T10:37:09.553Z,3.09
2023-01-27T10:39:42.244Z,3.11
2023-01-27T10:42:21.165Z,3.13
2023-01-27T10:44:50.338Z,3.21
2023-01-27T10:47:16.484Z,3.33
2023-01-27T10:49:47.421Z,3.42
2023-01-27T10:52:15.347Z,3.45
2023-01-27T10:54:46.628Z,3.52
2023-01-27T10:57:14.913Z,3.44
2023-01-27T10:59:46.386Z,3.48
2023-01-27T11:02:19.069Z,3.50
2023-01-27T11:04:48.919Z,3.44
2023-01-27T11:07:19.005Z,3.53
2023-01-27T11:09:48.950Z,3.53
2023-01-27T11:12:16.999Z,3.57
2023-01-27T11:14:49.844Z,3.51
2023-01-27T11:17:27.899Z,3.46
2023-01-27T11:19:56.509Z,3.51
2023-01-27T11:22:23.202Z,3.38
2023-01-27T11:25:06.166Z,3.31
2023-01-27T11:27:36.536Z,3.42
2023-01-27T11:30:03.760Z,3.38
2023-01-27T11:32:32.987Z,3.46
2023-01-27T11:35:03.273Z,3.35
2023-01-27T11:37:34.185Z,3.48
2023-01-27T11:40:00.539Z,3.59
2023-01-27T11:42:28.490Z,3.49
2023-01-27T11:44:54.798Z,3.50
2023-01-27T11:47:23.526Z,3.57
2023-01-27T11:49:49.764Z,3.58
2023-01-27T11:52:19.714Z,3.55
2023-01-27T11:54:48.951Z,3.53
2023-01-27T11:57:22.243Z,3.43
2023-01-27T11:59:49.775Z,3.63
2023-01-27T12:02:19.412Z,3.64
2023-01-27T12:04:50.009Z,3.66
2023-01-27T12:07:17.528Z,3.55
2023-01-27T12:09:43.748Z,3.65
2023-01-27T12:12:11.180Z,3.60
2023-01-27T12:14:37.393Z,3.57
2023-01-27T12:17:03.690Z,3.59
2023-01-27T12:19:30.840Z,3.76
2023-01-27T12:21:57.786Z,3.82
2023-01-27T12:24:26.599Z,3.70
2023-01-27T12:26:52.821Z,3.64
2023-01-27T12:29:24.683Z,3.60
2023-01-27T12:31:51.453Z,3.53
2023-01-27T12:34:21.385Z,3.39
2023-01-27T12:36:47.598Z,3.30
2023-01-27T12:39:32.643Z,3.29
2023-01-27T12:41:58.951Z,3.28
2023-01-27T12:44:25.219Z,3.56
2023-01-27T12:46:56.575Z,3.73
2023-01-27T12:49:22.794Z,3.81
2023-01-27T12:51:54.035Z,3.77
2023-01-27T12:54:21.236Z,3.72
2023-01-27T12:56:47.889Z,3.73
2023-01-27T12:59:14.446Z,3.65
2023-01-27T13:01:40.726Z,3.45
2023-01-27T13:04:17.208Z,3.38
2023-01-27T13:06:44.352Z,3.42
2023-01-27T13:09:19.511Z,3.47
2023-01-27T13:11:45.720Z,3.49
2023-01-27T13:14:15.575Z,3.41
2023-01-27T13:16:41.795Z,3.20
2023-01-27T13:19:15.576Z,3.06
2023-01-27T13:21:41.803Z,2.70
2023-01-27T13:24:13.474Z,2.71
2023-01-27T13:26:39.712Z,2.52
2023-01-27T13:29:05.883Z,2.51
2023-01-27T13:31:32.118Z,2.63
2023-01-27T13:34:00.656Z,2.79
2023-01-27T13:36:35.967Z,2.91
2023-01-27T13:39:08.285Z,3.03
2023-01-27T13:41:53.088Z,3.03
2023-01-27T13:44:30.083Z,2.90
2023-01-27T13:46:57.267Z,2.77
2023-01-27T13:49:23.438Z,2.75
2023-01-27T13:51:49.667Z,2.74
2023-01-27T13:54:15.871Z,2.77
2023-01-27T13:56:51.150Z,2.78
2023-01-27T13:59:32.569Z,3.00
2023-01-27T14:02:17.360Z,3.18
2023-01-27T14:05:04.384Z,3.26
2023-01-27T14:07:30.564Z,3.25
2023-01-27T14:10:10.592Z,3.16
2023-01-27T14:12:42.870Z,3.11
2023-01-27T14:15:18.163Z,3.05
2023-01-27T14:17:59.379Z,3.14
2023-01-27T14:20:30.339Z,3.02
2023-01-27T14:23:05.685Z,3.02
2023-01-27T14:25:31.977Z,2.99
2023-01-27T14:28:00.654Z,2.87
2023-01-27T14:30:28.594Z,2.85
2023-01-27T14:33:01.137Z,2.81
2023-01-27T14:35:48.895Z,2.72
2023-01-27T14:38:33.782Z,2.28
2023-01-27T14:41:06.444Z,2.22
2023-01-27T14:43:37.482Z,2.06
2023-01-27T14:46:17.242Z,1.99
2023-01-27T14:49:05.833Z,1.85
2023-01-27T14:51:41.238Z,2.06
2023-01-27T14:54:25.748Z,1.92
2023-01-27T14:57:10.705Z,2.00
2023-01-27T14:59:40.392Z,1.86
2023-01-27T15:02:17.451Z,1.78
2023-01-27T15:05:03.084Z,1.75
2023-01-27T15:07:29.236Z,1.88
2023-01-27T15:10:02.469Z,1.96
2023-01-27T15:12:28.654Z,1.90
2023-01-27T15:15:10.881Z,1.83
2023-01-27T15:17:56.004Z,1.80
2023-01-27T15:20:25.426Z,1.68
2023-01-27T15:23:00.516Z,1.57
2023-01-27T15:25:28.649Z,1.63
2023-01-27T15:27:54.850Z,1.65
2023-01-27T15:30:22.266Z,1.66
2023-01-27T15:32:48.478Z,1.74
2023-01-27T15:35:26.886Z,1.78
2023-01-27T15:37:56.064Z,1.78
2023-01-27T15:40:22.418Z,1.83
2023-01-27T15:42:57.520Z,1.87
2023-01-27T15:45:26.627Z,1.84
2023-01-27T15:48:11.351Z,1.79
2023-01-27T15:50:38.280Z,1.83
2023-01-27T15:53:10.392Z,1.75
2023-01-27T15:55:36.886Z,1.64
2023-01-27T15:58:07.288Z,1.65
2023-01-27T16:00:37.193Z,1.66
2023-01-27T16:03:04.011Z,1.61
2023-01-27T16:05:37.087Z,1.59
2023-01-27T16:08:04.300Z,1.52
2023-01-27T16:10:34.135Z,1.58
2023-01-27T16:13:12.487Z,1.63
2023-01-27T16:15:38.702Z,1.64
2023-01-27T16:18:07.898Z,1.64
2023-01-27T16:20:36.834Z,1.47
2023-01-27T16:23:13.507Z,1.38
2023-01-27T16:25:41.804Z,1.39
2023-01-27T16:28:14.692Z,1.37
2023-01-27T16:30:47.296Z,1.29
2023-01-27T16:33:24.938Z,1.17
2023-01-27T16:36:07.634Z,1.18
2023-01-27T16:38:33.786Z,1.20
2023-01-27T16:41:00.925Z,1.22
2023-01-27T16:43:34.031Z,1.12
2023-01-27T16:46:00.300Z,0.98
2023-01-27T16:48:36.732Z,0.99
2023-01-27T16:51:07.729Z,1.01
2023-01-27T16:53:33.935Z,1.03
2023-01-27T16:56:04.121Z,1.02
2023-01-27T16:58:43.849Z,1.03
2023-01-27T17:01:35.966Z,0.99
2023-01-27T17:04:14.041Z,0.97
2023-01-27T17:06:45.627Z,0.93
2023-01-27T17:09:22.347Z,0.96
2023-01-27T17:11:48.548Z,0.85
2023-01-27T17:14:28.643Z,0.60
2023-01-27T17:17:00.197Z,0.55
2023-01-27T17:19:35.872Z,0.66
2023-01-27T17:22:02.846Z,0.54
2023-01-27T17:24:29.877Z,0.48
2023-01-27T17:27:07.128Z,0.43
2023-01-27T17:29:34.502Z,0.35
2023-01-27T17:32:00.912Z,0.37
2023-01-27T17:34:27.187Z,0.44
2023-01-27T17:37:12.381Z,0.36
2023-01-27T17:39:38.597Z,0.40
2023-01-27T17:42:04.872Z,0.37
2023-01-27T17:44:31.087Z,0.45
2023-01-27T17:46:59.439Z,0.47
2023-01-27T17:49:25.651Z,0.53
2023-01-27T17:51:51.936Z,0.50
2023-01-27T17:54:24.274Z,0.63
2023-01-27T17:56:51.026Z,0.63
2023-01-27T17:59:19.169Z,0.64
2023-01-27T18:01:45.754Z,0.64
2023-01-27T18:04:12.013Z,0.75
2023-01-27T18:06:38.224Z,0.73
2023-01-27T18:09:14.644Z,0.76
2023-01-27T18:11:50.607Z,0.79
2023-01-27T18:14:17.448Z,0.70
2023-01-27T18:16:43.662Z,0.73
2023-01-27T18:19:19.792Z,0.79
2023-01-27T18:21:46.124Z,0.80
2023-01-27T18:24:19.980Z,0.79
2023-01-27T18:26:46.234Z,0.76
2023-01-27T18:29:12.401Z,0.68
2023-01-27T18:31:44.452Z,0.64
2023-01-27T18:34:20.374Z,0.57
2023-01-27T18:37:00.629Z,0.70
2023-01-27T18:39:26.802Z,0.72
2023-01-27T18:41:53.007Z,0.67
2023-01-27T18:44:19.226Z,0.56
2023-01-27T18:46:45.488Z,0.45
2023-01-27T18:49:11.977Z,0.47
2023-01-27T18:51:38.205Z,0.44
2023-01-27T18:54:05.354Z,0.52
2023-01-27T18:56:31.553Z,0.65
2023-01-27T18:58:57.754Z,0.71
2023-01-27T19:01:23.983Z,0.67
2023-01-27T19:03:50.379Z,0.60
2023-01-27T19:06:16.599Z,0.68
2023-01-27T19:08:42.817Z,0.53
2023-01-27T19:11:10.128Z,0.65
2023-01-27T19:13:36.323Z,0.32
2023-01-27T19:16:02.571Z,0.31
2023-01-27T19:18:30.580Z,0.39
2023-01-27T19:20:56.789Z,0.51
2023-01-27T19:23:22.998Z,0.52
2023-01-27T19:25:49.880Z,0.51
2023-01-27T19:28:17.338Z,0.41
2023-01-27T19:30:43.599Z,0.44
2023-01-27T19:33:19.489Z,0.49
2023-01-27T19:35:50.114Z,0.56
2023-01-27T19:38:16.311Z,0.39
2023-01-27T19:40:42.526Z,0.47
2023-01-27T19:43:12.235Z,0.31
2023-01-27T19:45:38.453Z,0.44
2023-01-27T19:48:05.521Z,0.55
2023-01-27T19:50:31.739Z,0.18
2023-01-27T19:52:58.033Z,0.01
2023-01-27T19:55:24.260Z,0.22
2023-01-27T19:57:50.653Z,0.07
2023-01-27T20:00:27.435Z,0.14
2023-01-27T20:02:53.852Z,0.29
2023-01-27T20:05:20.099Z,0.27
2023-01-27T20:07:46.305Z,0.36
2023-01-27T20:10:42.061Z,0.41
2023-01-27T20:13:19.409Z,0.42
2023-01-27T20:15:54.062Z,0.40
2023-01-27T20:18:22.796Z,0.38
2023-01-27T20:20:50.037Z,0.03
2023-01-27T20:23:16.270Z,-0.09
2023-01-27T20:25:42.501Z,-0.20
2023-01-27T20:28:08.826Z,-0.57
2023-01-27T20:30:35.093Z,-0.25
2023-01-27T20:33:03.701Z,-0.19
2023-01-27T20:35:29.919Z,-0.22
2023-01-27T20:37:56.228Z,-0.10
2023-01-27T20:40:28.293Z,0.03
2023-01-27T20:42:54.530Z,0.05
2023-01-27T20:45:20.875Z,-0.18
2023-01-27T20:47:50.609Z,-0.11
2023-01-27T20:50:16.879Z,-0.17
2023-01-27T20:52:43.105Z,-0.18
2023-01-27T20:55:09.339Z,-0.17
2023-01-27T20:57:35.612Z,-0.13
2023-01-27T21:00:01.813Z,-0.06
2023-01-27T21:02:28.308Z,-0.02
2023-01-27T21:04:54.585Z,0.05
2023-01-27T21:07:21.148Z,0.04
2023-01-27T21:09:47.355Z,-0.04
2023-01-27T21:12:13.577Z,-0.03
2023-01-27T21:14:40.160Z,-0.26
2023-01-27T21:17:06.738Z,-0.54
2023-01-27T21:19:32.942Z,-0.40
2023-01-27T21:21:59.155Z,-0.41
2023-01-27T21:24:25.443Z,-0.49
2023-01-27T21:26:52.382Z,-0.53
2023-01-27T21:29:18.632Z,-0.44
2023-01-27T21:31:44.893Z,-0.42
2023-01-27T21:34:11.107Z,-0.44
2023-01-27T21:36:37.389Z,-0.41
2023-01-27T21:39:03.955Z,-0.41
2023-01-27T21:41:30.153Z,-0.24
2023-01-27T21:43:56.373Z,-0.39
2023-01-27T21:46:22.595Z,-0.41
2023-01-27T21:48:48.816Z,-0.28
2023-01-27T21:51:15.049Z,-0.33
2023-01-27T21:53:41.271Z,-0.36
2023-01-27T21:56:07.944Z,-0.39
2023-01-27T21:58:34.194Z,-0.39
2023-01-27T22:01:06.943Z,-0.63
2023-01-27T22:03:33.171Z,-0.47
2023-01-27T22:05:59.386Z,-0.44
2023-01-27T22:08:25.602Z,-0.45
2023-01-27T22:10:51.814Z,-0.36
2023-01-27T22:13:18.047Z,-0.30
2023-01-27T22:15:48.470Z,-0.41
2023-01-27T22:18:14.682Z,-0.50
2023-01-27T22:20:40.888Z,-0.43
2023-01-27T22:23:07.097Z,-0.49
2023-01-27T22:25:33.291Z,-0.39
2023-01-27T22:27:59.495Z,-0.31
2023-01-27T22:30:25.696Z,-0.21
2023-01-27T22:32:51.939Z,-0.13
2023-01-27T22:35:18.608Z,-0.33
2023-01-27T22:37:45.009Z,-0.17
2023-01-27T22:40:11.473Z,-0.16
2023-01-27T22:42:37.682Z,-0.06
2023-01-27T22:45:04.037Z,-0.04
2023-01-27T22:47:30.247Z,0.01
2023-01-27T22:49:56.459Z,-0.04
2023-01-27T22:52:22.669Z,-0.29
2023-01-27T22:54:48.887Z,-0.35
2023-01-27T22:57:15.080Z,-0.48
2023-01-27T22:59:41.285Z,-0.38
2023-01-27T23:02:07.499Z,-0.26
2023-01-27T23:04:33.711Z,-0.22
2023-01-27T23:06:59.902Z,-0.13
2023-01-27T23:09:26.139Z,-0.10
2023-01-27T23:11:52.346Z,-0.16
2023-01-27T23:14:18.637Z,-0.18
2023-01-27T23:16:44.882Z,-0.20
2023-01-27T23:19:11.093Z,-0.13
2023-01-27T23:21:37.303Z,-0.09
2023-01-27T23:24:04.069Z,-0.05
2023-01-27T23:26:31.556Z,0.07
2023-01-27T23:28:57.766Z,0.12
2023-01-27T23:31:24.052Z,0.05
2023-01-27T23:33:50.512Z,0.04
2023-01-27T23:36:16.722Z,0.11
2023-01-27T23:38:42.948Z,-0.03
2023-01-27T23:41:10.982Z,-0.06
2023-01-27T23:43:37.214Z,-0.21
2023-01-27T23:46:03.422Z,-0.18
2023-01-27T23:48:29.642Z,-0.04
2023-01-27T23:50:55.882Z,-0.02
2023-01-27T23:53:22.099Z,0.05
2023-01-27T23:55:57.453Z,0.04
2023-01-27T23:58:23.746Z,0.05
